KVDI/VDI METAR and TAF weather

Enter ICAO airport designator
Station Type Date Time Source
KVDI METAR 2021/04/13 07:37 UTC NOAA

KVDI 130737Z AUTO 29003KT 10SM CLR 19/08 A2996 RMK AO2


Station Type Date Time Source
KVDI Decoded METAR 2021/04/13 07:37 UTC NOAA

Vidalia, Vidalia Municipal Airport, GA, United States (KVDI) 32-11-33N 082-22-19W
Apr 13, 2021 - 03:37 AM EDT / 2021.04.13 0737 UTC
Wind: from the WNW (290 degrees) at 3 MPH (3 KT):0
Visibility: 10 mile(s):0
Sky conditions: clear
Temperature: 66 F (19 C)
Dew Point: 46 F (8 C)
Relative Humidity: 48%
Pressure (altimeter): 29.96 in. Hg (1014 hPa)
ob: KVDI 130737Z AUTO 29003KT 10SM CLR 19/08 A2996 RMK AO2
cycle: 7

Station Type Date Time Source
KVDI TAF UTC NOAA

Error!

Example: see airport list